Impacts TAF Board INFO
FOR SITUATIONAL AWARENESS. NOT TO BE USED FOR FLIGHT PLANNING PURPOSES.
IDs:

KSFO - San Francisco Intl, CA, US

Issued at 1452 UTC 28 Feb 2017
Updated at 1641 UTC 28 Feb 2017
Potential Impact None Slight Moderate High
Time1556Z 28/17Z 28/18Z 28/19Z 28/20Z 28/21Z 28/22Z 28/23Z 01/00Z 01/01Z 01/02Z 01/03Z 01/04Z 01/05Z
Type OBS PRVL PRVL PRVL PRVL PRVL PRVL PRVL PRVL PRVL PRVL PRVL PRVL PRVL
VIS 10 >6 >6 >6 >6 >6 >6 >6 >6 >6 >6 >6 >6 >6
CIG -- -- -- -- -- -- -- -- -- -- -- -- -- --
Cover CLR SKC SKC SKC SKC SKC SKC SKC SKC SKC SKC SKC SKC SKC
FltCat VFR VFR VFR VFR VFR VFR VFR VFR VFR VFR VFR VFR VFR VFR
WX -- -- -- -- -- -- -- -- -- -- -- -- -- --
WDir 330 310 310 310 310 310 290 290 290 290 290 290 290 290
WSpd 6 6 6 6 6 6 12 12 12 12 12 12 6 6
WGst -- -- -- -- -- -- -- -- -- -- -- -- -- --

Raw TAF
KSFO 281452Z 2815/0118 31006KT P6SM SKC
  FM282200 29012KT P6SM SKC
  FM010400 29006KT P6SM SKC
  FM010700 VRB03KT P6SM SKC


Raw METAR
KSFO 281556Z 33006KT 10SM CLR 09/00 A3018 RMK AO2 SLP221 T00890000
KSFO 281456Z 31005KT 10SM CLR 07/01 A3015 RMK AO2 SLP210 T00670006 53027
KSFO 281356Z 33008KT 10SM FEW024 08/01 A3011 RMK AO2 SLP197 T00830006

METAR Board
Radar Display
Forecast Discussion

FOR SITUATIONAL AWARENESS. NOT TO BE USED FOR FLIGHT PLANNING PURPOSES.

Page loaded:  16:41 UTC  |   08:41 AM Pacific  |   09:41 AM Mountain  |   10:41 AM Central  |   11:41 AM Eastern

 

ADVISORIES

FORECASTS

FORECASTS

OBSERVATIONS

USER TOOLS

ABOUT US